sensor_id;sensor_type;location;lat;lon;timestamp;pressure;altitude;pressure_sealevel;temperature
76895;BMP280;65855;42.030;13.078;2022-12-19T00:01:51;95122.84;;;3.77
76895;BMP280;65855;42.030;13.078;2022-12-19T00:04:16;95122.63;;;3.78
76895;BMP280;65855;42.030;13.078;2022-12-19T00:06:44;95131.66;;;3.30
76895;BMP280;65855;42.030;13.078;2022-12-19T00:09:11;95134.94;;;3.24
76895;BMP280;65855;42.030;13.078;2022-12-19T00:11:36;95129.72;;;3.32
76895;BMP280;65855;42.030;13.078;2022-12-19T00:14:03;95124.72;;;3.38
76895;BMP280;65855;42.030;13.078;2022-12-19T00:16:29;95131.53;;;3.68
76895;BMP280;65855;42.030;13.078;2022-12-19T00:18:58;95127.72;;;3.59
76895;BMP280;65855;42.030;13.078;2022-12-19T00:21:26;95132.19;;;3.44
76895;BMP280;65855;42.030;13.078;2022-12-19T00:23:52;95133.94;;;3.31
76895;BMP280;65855;42.030;13.078;2022-12-19T00:26:20;95131.53;;;3.68
76895;BMP280;65855;42.030;13.078;2022-12-19T00:28:48;95130.91;;;3.72
76895;BMP280;65855;42.030;13.078;2022-12-19T00:31:16;95135.84;;;3.85
76895;BMP280;65855;42.030;13.078;2022-12-19T00:33:42;95135.34;;;3.70
76895;BMP280;65855;42.030;13.078;2022-12-19T00:36:34;95130.44;;;3.45
76895;BMP280;65855;42.030;13.078;2022-12-19T00:39:00;95130.56;;;3.00
76895;BMP280;65855;42.030;13.078;2022-12-19T00:41:28;95136.69;;;3.11
76895;BMP280;65855;42.030;13.078;2022-12-19T00:43:59;95136.06;;;3.28
76895;BMP280;65855;42.030;13.078;2022-12-19T00:46:25;95129.34;;;3.41
76895;BMP280;65855;42.030;13.078;2022-12-19T00:48:51;95129.13;;;3.42
76895;BMP280;65855;42.030;13.078;2022-12-19T00:51:19;95133.09;;;3.56
76895;BMP280;65855;42.030;13.078;2022-12-19T00:53:47;95131.94;;;3.52
76895;BMP280;65855;42.030;13.078;2022-12-19T00:56:15;95129.50;;;3.39
76895;BMP280;65855;42.030;13.078;2022-12-19T00:58:41;95134.63;;;3.57
76895;BMP280;65855;42.030;13.078;2022-12-19T01:01:25;95143.34;;;3.79
76895;BMP280;65855;42.030;13.078;2022-12-19T01:03:51;95143.31;;;3.42
76895;BMP280;65855;42.030;13.078;2022-12-19T01:06:17;95139.38;;;3.09
76895;BMP280;65855;42.030;13.078;2022-12-19T01:08:43;95141.59;;;3.42
76895;BMP280;65855;42.030;13.078;2022-12-19T01:11:09;95131.88;;;3.71
76895;BMP280;65855;42.030;13.078;2022-12-19T01:13:36;95126.91;;;3.65
76895;BMP280;65855;42.030;13.078;2022-12-19T01:16:10;95131.16;;;3.58
76895;BMP280;65855;42.030;13.078;2022-12-19T01:18:37;95127.00;;;3.46
76895;BMP280;65855;42.030;13.078;2022-12-19T01:21:06;95125.97;;;3.10
76895;BMP280;65855;42.030;13.078;2022-12-19T01:23:31;95124.28;;;2.53
76895;BMP280;65855;42.030;13.078;2022-12-19T01:25:58;95121.78;;;2.60
76895;BMP280;65855;42.030;13.078;2022-12-19T01:28:23;95128.88;;;2.56
76895;BMP280;65855;42.030;13.078;2022-12-19T01:30:49;95118.53;;;2.59
76895;BMP280;65855;42.030;13.078;2022-12-19T01:33:16;95125.81;;;2.73
76895;BMP280;65855;42.030;13.078;2022-12-19T01:35:42;95120.06;;;2.73
76895;BMP280;65855;42.030;13.078;2022-12-19T01:38:19;95118.72;;;2.83
76895;BMP280;65855;42.030;13.078;2022-12-19T01:40:53;95121.34;;;3.07
76895;BMP280;65855;42.030;13.078;2022-12-19T01:43:19;95119.63;;;3.01
76895;BMP280;65855;42.030;13.078;2022-12-19T01:45:46;95119.00;;;3.25
76895;BMP280;65855;42.030;13.078;2022-12-19T01:53:15;95113.25;;;3.31
76895;BMP280;65855;42.030;13.078;2022-12-19T01:55:42;95107.66;;;3.41
76895;BMP280;65855;42.030;13.078;2022-12-19T01:58:09;95110.59;;;3.13
76895;BMP280;65855;42.030;13.078;2022-12-19T02:00:35;95100.72;;;2.62
76895;BMP280;65855;42.030;13.078;2022-12-19T02:03:35;95100.72;;;2.62
76895;BMP280;65855;42.030;13.078;2022-12-19T02:05:59;95109.13;;;2.74
76895;BMP280;65855;42.030;13.078;2022-12-19T02:08:26;95109.28;;;3.04
76895;BMP280;65855;42.030;13.078;2022-12-19T02:10:52;95113.13;;;2.94
76895;BMP280;65855;42.030;13.078;2022-12-19T02:13:19;95101.75;;;3.30
76895;BMP280;65855;42.030;13.078;2022-12-19T02:21:06;95100.31;;;2.84
76895;BMP280;65855;42.030;13.078;2022-12-19T02:31:26;95105.53;;;2.32
76895;BMP280;65855;42.030;13.078;2022-12-19T02:36:54;95117.97;;;2.44
76895;BMP280;65855;42.030;13.078;2022-12-19T02:39:31;95113.72;;;2.07
76895;BMP280;65855;42.030;13.078;2022-12-19T02:41:59;95111.59;;;1.97
76895;BMP280;65855;42.030;13.078;2022-12-19T02:47:09;95125.47;;;1.73
76895;BMP280;65855;42.030;13.078;2022-12-19T02:49:36;95125.91;;;1.83
76895;BMP280;65855;42.030;13.078;2022-12-19T02:54:56;95130.72;;;1.97
76895;BMP280;65855;42.030;13.078;2022-12-19T03:00:25;95139.31;;;1.36
76895;BMP280;65855;42.030;13.078;2022-12-19T03:08:12;95148.34;;;0.83
76895;BMP280;65855;42.030;13.078;2022-12-19T03:10:45;95143.75;;;0.80
76895;BMP280;65855;42.030;13.078;2022-12-19T03:13:16;95141.50;;;0.85
76895;BMP280;65855;42.030;13.078;2022-12-19T03:16:00;95144.19;;;0.90
76895;BMP280;65855;42.030;13.078;2022-12-19T03:18:26;95141.16;;;0.94
76895;BMP280;65855;42.030;13.078;2022-12-19T03:24:08;95125.44;;;1.60
76895;BMP280;65855;42.030;13.078;2022-12-19T03:26:48;95117.34;;;2.04
76895;BMP280;65855;42.030;13.078;2022-12-19T03:29:36;95109.53;;;2.33
76895;BMP280;65855;42.030;13.078;2022-12-19T03:32:06;95108.38;;;2.61
76895;BMP280;65855;42.030;13.078;2022-12-19T03:34:44;95097.28;;;2.50
76895;BMP280;65855;42.030;13.078;2022-12-19T03:37:14;95104.50;;;3.09
76895;BMP280;65855;42.030;13.078;2022-12-19T03:39:45;95102.63;;;2.86
76895;BMP280;65855;42.030;13.078;2022-12-19T03:42:12;95097.44;;;2.93
76895;BMP280;65855;42.030;13.078;2022-12-19T03:44:58;95093.19;;;1.86
76895;BMP280;65855;42.030;13.078;2022-12-19T03:47:36;95102.22;;;2.76
76895;BMP280;65855;42.030;13.078;2022-12-19T03:50:04;95104.06;;;3.25
76895;BMP280;65855;42.030;13.078;2022-12-19T03:55:36;95091.50;;;2.82
76895;BMP280;65855;42.030;13.078;2022-12-19T03:58:15;95099.13;;;2.99
76895;BMP280;65855;42.030;13.078;2022-12-19T04:00:43;95095.47;;;3.08
76895;BMP280;65855;42.030;13.078;2022-12-19T04:03:16;95097.16;;;3.20
76895;BMP280;65855;42.030;13.078;2022-12-19T04:05:42;95097.22;;;2.88
76895;BMP280;65855;42.030;13.078;2022-12-19T04:08:10;95099.97;;;2.49
76895;BMP280;65855;42.030;13.078;2022-12-19T04:10:43;95106.03;;;1.95
76895;BMP280;65855;42.030;13.078;2022-12-19T04:13:15;95115.34;;;1.62
76895;BMP280;65855;42.030;13.078;2022-12-19T04:16:28;95128.75;;;1.27
76895;BMP280;65855;42.030;13.078;2022-12-19T04:18:59;95131.06;;;0.95
76895;BMP280;65855;42.030;13.078;2022-12-19T04:21:31;95135.31;;;0.74
76895;BMP280;65855;42.030;13.078;2022-12-19T04:24:11;95139.78;;;0.58
76895;BMP280;65855;42.030;13.078;2022-12-19T04:26:39;95133.81;;;0.26
76895;BMP280;65855;42.030;13.078;2022-12-19T04:29:06;95143.41;;;0.15
76895;BMP280;65855;42.030;13.078;2022-12-19T04:31:32;95139.69;;;0.04
76895;BMP280;65855;42.030;13.078;2022-12-19T04:33:58;95145.34;;;-0.01
76895;BMP280;65855;42.030;13.078;2022-12-19T04:36:24;95155.63;;;-0.04
76895;BMP280;65855;42.030;13.078;2022-12-19T04:38:51;95148.31;;;-0.12
76895;BMP280;65855;42.030;13.078;2022-12-19T04:41:16;95153.84;;;-0.10
76895;BMP280;65855;42.030;13.078;2022-12-19T04:43:41;95150.41;;;-0.09
76895;BMP280;65855;42.030;13.078;2022-12-19T04:46:07;95150.59;;;-0.11
76895;BMP280;65855;42.030;13.078;2022-12-19T04:48:34;95161.28;;;-0.10
76895;BMP280;65855;42.030;13.078;2022-12-19T04:51:00;95142.94;;;0.25
76895;BMP280;65855;42.030;13.078;2022-12-19T04:53:25;95145.84;;;0.29
76895;BMP280;65855;42.030;13.078;2022-12-19T04:55:59;95155.69;;;0.43
76895;BMP280;65855;42.030;13.078;2022-12-19T04:58:25;95155.00;;;0.28
76895;BMP280;65855;42.030;13.078;2022-12-19T05:00:51;95154.75;;;0.03
76895;BMP280;65855;42.030;13.078;2022-12-19T05:03:16;95155.59;;;-0.25
76895;BMP280;65855;42.030;13.078;2022-12-19T05:05:42;95147.50;;;0.22
76895;BMP280;65855;42.030;13.078;2022-12-19T05:08:07;95139.59;;;0.33
76895;BMP280;65855;42.030;13.078;2022-12-19T05:10:33;95143.84;;;0.93
76895;BMP280;65855;42.030;13.078;2022-12-19T05:13:00;95141.25;;;1.07
76895;BMP280;65855;42.030;13.078;2022-12-19T05:15:25;95133.56;;;1.29
76895;BMP280;65855;42.030;13.078;2022-12-19T05:17:51;95136.44;;;0.72
76895;BMP280;65855;42.030;13.078;2022-12-19T05:20:16;95132.41;;;0.98
76895;BMP280;65855;42.030;13.078;2022-12-19T05:22:42;95129.44;;;1.15
76895;BMP280;65855;42.030;13.078;2022-12-19T05:25:07;95117.38;;;1.52
76895;BMP280;65855;42.030;13.078;2022-12-19T05:27:33;95116.63;;;1.51
76895;BMP280;65855;42.030;13.078;2022-12-19T05:29:58;95120.13;;;1.63
76895;BMP280;65855;42.030;13.078;2022-12-19T05:32:29;95121.63;;;1.64
76895;BMP280;65855;42.030;13.078;2022-12-19T05:34:55;95128.59;;;1.88
76895;BMP280;65855;42.030;13.078;2022-12-19T05:37:20;95125.22;;;2.27
76895;BMP280;65855;42.030;13.078;2022-12-19T05:39:46;95127.53;;;2.41
76895;BMP280;65855;42.030;13.078;2022-12-19T05:42:11;95119.31;;;2.53
76895;BMP280;65855;42.030;13.078;2022-12-19T05:44:37;95116.81;;;2.53
76895;BMP280;65855;42.030;13.078;2022-12-19T05:47:02;95120.25;;;2.46
76895;BMP280;65855;42.030;13.078;2022-12-19T05:49:27;95123.28;;;2.10
76895;BMP280;65855;42.030;13.078;2022-12-19T05:51:53;95134.84;;;1.65
76895;BMP280;65855;42.030;13.078;2022-12-19T05:54:18;95135.41;;;1.20
76895;BMP280;65855;42.030;13.078;2022-12-19T05:56:44;95133.03;;;0.73
76895;BMP280;65855;42.030;13.078;2022-12-19T05:59:09;95135.44;;;0.40
76895;BMP280;65855;42.030;13.078;2022-12-19T06:01:36;95140.19;;;0.14
76895;BMP280;65855;42.030;13.078;2022-12-19T06:04:01;95151.94;;;-0.08
76895;BMP280;65855;42.030;13.078;2022-12-19T06:06:28;95148.38;;;-0.20
76895;BMP280;65855;42.030;13.078;2022-12-19T06:08:55;95151.84;;;-0.35
76895;BMP280;65855;42.030;13.078;2022-12-19T06:11:21;95157.44;;;-0.48
76895;BMP280;65855;42.030;13.078;2022-12-19T06:13:47;95153.63;;;-0.29
76895;BMP280;65855;42.030;13.078;2022-12-19T06:16:15;95166.06;;;-0.44
76895;BMP280;65855;42.030;13.078;2022-12-19T06:18:41;95160.78;;;-0.55
76895;BMP280;65855;42.030;13.078;2022-12-19T06:21:12;95163.06;;;-0.53
76895;BMP280;65855;42.030;13.078;2022-12-19T06:23:39;95157.34;;;-0.54
76895;BMP280;65855;42.030;13.078;2022-12-19T06:26:06;95156.25;;;-0.51
76895;BMP280;65855;42.030;13.078;2022-12-19T06:28:32;95150.34;;;-0.50
76895;BMP280;65855;42.030;13.078;2022-12-19T06:30:59;95151.78;;;-0.42
76895;BMP280;65855;42.030;13.078;2022-12-19T06:33:26;95154.94;;;-0.48
76895;BMP280;65855;42.030;13.078;2022-12-19T06:35:58;95156.88;;;-0.29
76895;BMP280;65855;42.030;13.078;2022-12-19T06:38:24;95156.44;;;-0.18
76895;BMP280;65855;42.030;13.078;2022-12-19T06:40:49;95149.13;;;-0.05
76895;BMP280;65855;42.030;13.078;2022-12-19T06:43:34;95146.84;;;0.34
76895;BMP280;65855;42.030;13.078;2022-12-19T06:45:59;95144.78;;;1.25
76895;BMP280;65855;42.030;13.078;2022-12-19T06:48:26;95142.47;;;1.17
76895;BMP280;65855;42.030;13.078;2022-12-19T06:50:52;95144.06;;;0.97
76895;BMP280;65855;42.030;13.078;2022-12-19T06:53:17;95152.00;;;0.60
76895;BMP280;65855;42.030;13.078;2022-12-19T06:55:43;95156.44;;;0.91
76895;BMP280;65855;42.030;13.078;2022-12-19T06:58:08;95155.00;;;1.36
76895;BMP280;65855;42.030;13.078;2022-12-19T07:00:35;95157.28;;;1.84
76895;BMP280;65855;42.030;13.078;2022-12-19T07:03:03;95155.63;;;2.10
76895;BMP280;65855;42.030;13.078;2022-12-19T07:05:29;95154.44;;;1.87
76895;BMP280;65855;42.030;13.078;2022-12-19T07:07:54;95160.53;;;1.38
76895;BMP280;65855;42.030;13.078;2022-12-19T07:10:20;95176.50;;;1.23
76895;BMP280;65855;42.030;13.078;2022-12-19T07:12:45;95173.72;;;0.78
76895;BMP280;65855;42.030;13.078;2022-12-19T07:15:11;95180.69;;;0.69
76895;BMP280;65855;42.030;13.078;2022-12-19T07:17:36;95179.53;;;0.65
76895;BMP280;65855;42.030;13.078;2022-12-19T07:20:02;95181.69;;;0.74
76895;BMP280;65855;42.030;13.078;2022-12-19T07:22:31;95178.56;;;0.39
76895;BMP280;65855;42.030;13.078;2022-12-19T07:24:57;95168.16;;;0.29
76895;BMP280;65855;42.030;13.078;2022-12-19T07:27:23;95164.16;;;0.28
76895;BMP280;65855;42.030;13.078;2022-12-19T07:29:49;95167.50;;;0.21
76895;BMP280;65855;42.030;13.078;2022-12-19T07:32:14;95169.28;;;1.01
76895;BMP280;65855;42.030;13.078;2022-12-19T07:34:40;95174.31;;;1.47
76895;BMP280;65855;42.030;13.078;2022-12-19T07:37:05;95169.44;;;2.50
76895;BMP280;65855;42.030;13.078;2022-12-19T07:39:31;95165.09;;;2.78
76895;BMP280;65855;42.030;13.078;2022-12-19T07:41:57;95170.59;;;3.05
76895;BMP280;65855;42.030;13.078;2022-12-19T07:44:22;95167.69;;;3.21
76895;BMP280;65855;42.030;13.078;2022-12-19T07:46:48;95167.72;;;2.89
76895;BMP280;65855;42.030;13.078;2022-12-19T07:49:13;95173.81;;;3.37
76895;BMP280;65855;42.030;13.078;2022-12-19T07:51:38;95176.16;;;3.82
76895;BMP280;65855;42.030;13.078;2022-12-19T07:54:04;95173.69;;;4.49
76895;BMP280;65855;42.030;13.078;2022-12-19T07:56:29;95169.28;;;4.99
76895;BMP280;65855;42.030;13.078;2022-12-19T07:58:55;95169.59;;;5.26
76895;BMP280;65855;42.030;13.078;2022-12-19T08:01:20;95166.00;;;5.23
76895;BMP280;65855;42.030;13.078;2022-12-19T08:03:46;95172.97;;;6.38
76895;BMP280;65855;42.030;13.078;2022-12-19T08:06:12;95172.53;;;7.37
76895;BMP280;65855;42.030;13.078;2022-12-19T08:08:37;95166.41;;;7.56
76895;BMP280;65855;42.030;13.078;2022-12-19T08:11:18;95173.09;;;7.89
76895;BMP280;65855;42.030;13.078;2022-12-19T08:13:46;95170.03;;;7.98
76895;BMP280;65855;42.030;13.078;2022-12-19T08:16:12;95165.25;;;8.52
76895;BMP280;65855;42.030;13.078;2022-12-19T08:18:38;95168.31;;;8.54
76895;BMP280;65855;42.030;13.078;2022-12-19T08:21:06;95163.69;;;8.78
76895;BMP280;65855;42.030;13.078;2022-12-19T08:23:32;95156.28;;;8.56
76895;BMP280;65855;42.030;13.078;2022-12-19T08:25:59;95156.41;;;7.11
76895;BMP280;65855;42.030;13.078;2022-12-19T08:28:25;95160.00;;;7.15
76895;BMP280;65855;42.030;13.078;2022-12-19T08:30:51;95166.31;;;7.17
76895;BMP280;65855;42.030;13.078;2022-12-19T08:33:17;95166.53;;;8.11
76895;BMP280;65855;42.030;13.078;2022-12-19T08:35:42;95170.53;;;6.31
76895;BMP280;65855;42.030;13.078;2022-12-19T08:38:08;95169.94;;;7.21
76895;BMP280;65855;42.030;13.078;2022-12-19T08:40:34;95178.09;;;7.05
76895;BMP280;65855;42.030;13.078;2022-12-19T08:42:59;95167.78;;;6.62
76895;BMP280;65855;42.030;13.078;2022-12-19T08:45:25;95172.44;;;8.05
76895;BMP280;65855;42.030;13.078;2022-12-19T08:47:50;95172.28;;;9.31
76895;BMP280;65855;42.030;13.078;2022-12-19T08:50:15;95170.66;;;9.78
76895;BMP280;65855;42.030;13.078;2022-12-19T08:52:41;95157.44;;;10.60
76895;BMP280;65855;42.030;13.078;2022-12-19T08:55:06;95165.91;;;11.02
76895;BMP280;65855;42.030;13.078;2022-12-19T08:57:34;95162.78;;;11.26
76895;BMP280;65855;42.030;13.078;2022-12-19T08:59:59;95159.63;;;12.80
76895;BMP280;65855;42.030;13.078;2022-12-19T09:02:25;95160.47;;;10.57
76895;BMP280;65855;42.030;13.078;2022-12-19T09:04:50;95171.63;;;10.40
76895;BMP280;65855;42.030;13.078;2022-12-19T09:07:16;95178.78;;;11.36
76895;BMP280;65855;42.030;13.078;2022-12-19T09:09:44;95176.38;;;12.06
76895;BMP280;65855;42.030;13.078;2022-12-19T09:12:11;95176.75;;;11.38
76895;BMP280;65855;42.030;13.078;2022-12-19T09:14:37;95186.06;;;11.73
76895;BMP280;65855;42.030;13.078;2022-12-19T09:17:03;95185.75;;;10.62
76895;BMP280;65855;42.030;13.078;2022-12-19T09:19:28;95183.44;;;11.53
76895;BMP280;65855;42.030;13.078;2022-12-19T09:21:53;95180.34;;;10.54
76895;BMP280;65855;42.030;13.078;2022-12-19T09:24:19;95188.97;;;9.90
76895;BMP280;65855;42.030;13.078;2022-12-19T09:26:44;95180.31;;;10.28
76895;BMP280;65855;42.030;13.078;2022-12-19T09:29:10;95176.84;;;10.81
76895;BMP280;65855;42.030;13.078;2022-12-19T09:31:36;95177.38;;;9.89
76895;BMP280;65855;42.030;13.078;2022-12-19T09:34:01;95179.50;;;9.81
76895;BMP280;65855;42.030;13.078;2022-12-19T09:36:27;95174.75;;;8.77
76895;BMP280;65855;42.030;13.078;2022-12-19T09:38:54;95164.78;;;8.55
76895;BMP280;65855;42.030;13.078;2022-12-19T09:46:55;95154.59;;;9.26
76895;BMP280;65855;42.030;13.078;2022-12-19T09:49:26;95156.03;;;10.17
76895;BMP280;65855;42.030;13.078;2022-12-19T09:54:47;95145.31;;;10.83
76895;BMP280;65855;42.030;13.078;2022-12-19T09:57:24;95135.75;;;10.59
76895;BMP280;65855;42.030;13.078;2022-12-19T09:59:59;95132.13;;;11.12
76895;BMP280;65855;42.030;13.078;2022-12-19T10:05:17;95122.09;;;12.43
76895;BMP280;65855;42.030;13.078;2022-12-19T10:07:44;95119.63;;;12.77
76895;BMP280;65855;42.030;13.078;2022-12-19T10:10:15;95117.34;;;11.26
76895;BMP280;65855;42.030;13.078;2022-12-19T10:13:14;95126.53;;;11.05
76895;BMP280;65855;42.030;13.078;2022-12-19T10:21:23;95104.56;;;14.91
76895;BMP280;65855;42.030;13.078;2022-12-19T10:26:45;95098.69;;;15.75
76895;BMP280;65855;42.030;13.078;2022-12-19T10:34:44;95090.19;;;15.15
76895;BMP280;65855;42.030;13.078;2022-12-19T10:42:11;95077.78;;;17.49
76895;BMP280;65855;42.030;13.078;2022-12-19T10:44:42;95073.31;;;17.94
76895;BMP280;65855;42.030;13.078;2022-12-19T10:47:13;95071.72;;;17.98
76895;BMP280;65855;42.030;13.078;2022-12-19T10:49:39;95065.50;;;18.26
76895;BMP280;65855;42.030;13.078;2022-12-19T10:52:06;95064.53;;;17.74
76895;BMP280;65855;42.030;13.078;2022-12-19T11:00:14;95068.31;;;17.63
76895;BMP280;65855;42.030;13.078;2022-12-19T11:05:26;95049.97;;;18.57
76895;BMP280;65855;42.030;13.078;2022-12-19T11:10:46;95049.75;;;18.67
76895;BMP280;65855;42.030;13.078;2022-12-19T11:13:20;95039.22;;;19.11
76895;BMP280;65855;42.030;13.078;2022-12-19T11:15:50;95036.59;;;18.81
76895;BMP280;65855;42.030;13.078;2022-12-19T11:18:16;95032.44;;;19.45
76895;BMP280;65855;42.030;13.078;2022-12-19T11:21:00;95028.69;;;20.64
76895;BMP280;65855;42.030;13.078;2022-12-19T11:23:28;95035.03;;;20.67
76895;BMP280;65855;42.030;13.078;2022-12-19T11:25:59;95024.13;;;21.03
76895;BMP280;65855;42.030;13.078;2022-12-19T11:28:32;95027.03;;;21.38
76895;BMP280;65855;42.030;13.078;2022-12-19T11:31:26;95017.66;;;21.42
76895;BMP280;65855;42.030;13.078;2022-12-19T11:33:54;95019.97;;;20.48
76895;BMP280;65855;42.030;13.078;2022-12-19T11:36:29;95025.50;;;19.92
76895;BMP280;65855;42.030;13.078;2022-12-19T11:38:57;95016.19;;;20.29
76895;BMP280;65855;42.030;13.078;2022-12-19T11:41:34;95021.97;;;18.95
76895;BMP280;65855;42.030;13.078;2022-12-19T11:44:13;95010.75;;;20.39
76895;BMP280;65855;42.030;13.078;2022-12-19T11:46:56;95010.91;;;20.18
76895;BMP280;65855;42.030;13.078;2022-12-19T11:49:41;95017.19;;;19.02
76895;BMP280;65855;42.030;13.078;2022-12-19T11:52:16;95011.78;;;18.52
76895;BMP280;65855;42.030;13.078;2022-12-19T11:55:20;95020.34;;;16.81
76895;BMP280;65855;42.030;13.078;2022-12-19T11:57:48;95007.19;;;15.88
76895;BMP280;65855;42.030;13.078;2022-12-19T12:00:19;95012.69;;;17.25
76895;BMP280;65855;42.030;13.078;2022-12-19T12:05:47;95014.59;;;19.24
76895;BMP280;65855;42.030;13.078;2022-12-19T12:14:14;95013.03;;;17.72
76895;BMP280;65855;42.030;13.078;2022-12-19T12:17:03;95011.03;;;17.95
76895;BMP280;65855;42.030;13.078;2022-12-19T12:24:58;95010.41;;;16.66
76895;BMP280;65855;42.030;13.078;2022-12-19T12:30:19;95007.09;;;16.16
76895;BMP280;65855;42.030;13.078;2022-12-19T12:33:05;95020.81;;;16.33
76895;BMP280;65855;42.030;13.078;2022-12-19T12:35:37;95017.56;;;17.08
76895;BMP280;65855;42.030;13.078;2022-12-19T12:41:10;95000.97;;;17.11
76895;BMP280;65855;42.030;13.078;2022-12-19T12:46:22;94991.63;;;18.51
76895;BMP280;65855;42.030;13.078;2022-12-19T12:48:58;94983.13;;;17.85
76895;BMP280;65855;42.030;13.078;2022-12-19T12:51:24;94975.38;;;18.25
76895;BMP280;65855;42.030;13.078;2022-12-19T12:53:57;94984.84;;;18.76
76895;BMP280;65855;42.030;13.078;2022-12-19T12:56:24;94982.59;;;18.75
76895;BMP280;65855;42.030;13.078;2022-12-19T13:03:55;94974.13;;;20.30
76895;BMP280;65855;42.030;13.078;2022-12-19T13:11:39;94976.09;;;19.28
76895;BMP280;65855;42.030;13.078;2022-12-19T13:16:58;94975.41;;;19.06
76895;BMP280;65855;42.030;13.078;2022-12-19T13:19:26;94976.66;;;18.14
76895;BMP280;65855;42.030;13.078;2022-12-19T13:24:51;94982.59;;;16.20
76895;BMP280;65855;42.030;13.078;2022-12-19T13:32:19;94978.72;;;16.09
76895;BMP280;65855;42.030;13.078;2022-12-19T13:42:34;94973.66;;;18.64
76895;BMP280;65855;42.030;13.078;2022-12-19T13:47:44;94979.44;;;17.56
76895;BMP280;65855;42.030;13.078;2022-12-19T13:50:29;94975.31;;;18.60
76895;BMP280;65855;42.030;13.078;2022-12-19T13:52:55;94973.44;;;18.74
76895;BMP280;65855;42.030;13.078;2022-12-19T13:55:20;94976.97;;;17.86
76895;BMP280;65855;42.030;13.078;2022-12-19T13:57:48;94981.63;;;16.34
76895;BMP280;65855;42.030;13.078;2022-12-19T14:00:20;94978.94;;;15.53
76895;BMP280;65855;42.030;13.078;2022-12-19T14:02:52;94991.09;;;13.46
76895;BMP280;65855;42.030;13.078;2022-12-19T14:07:49;94994.19;;;10.87
76895;BMP280;65855;42.030;13.078;2022-12-19T14:10:22;94991.34;;;10.38
76895;BMP280;65855;42.030;13.078;2022-12-19T14:12:49;94996.31;;;10.28
76895;BMP280;65855;42.030;13.078;2022-12-19T14:15:43;94996.53;;;9.91
76895;BMP280;65855;42.030;13.078;2022-12-19T14:20:44;94997.63;;;9.53
76895;BMP280;65855;42.030;13.078;2022-12-19T14:23:10;94995.69;;;9.17
76895;BMP280;65855;42.030;13.078;2022-12-19T14:28:07;95004.31;;;8.63
76895;BMP280;65855;42.030;13.078;2022-12-19T14:30:36;95006.50;;;8.60
76895;BMP280;65855;42.030;13.078;2022-12-19T14:33:31;94999.69;;;8.39
76895;BMP280;65855;42.030;13.078;2022-12-19T14:35:57;95000.22;;;8.25
76895;BMP280;65855;42.030;13.078;2022-12-19T14:38:27;95003.78;;;8.13
76895;BMP280;65855;42.030;13.078;2022-12-19T14:40:53;94992.84;;;8.18
76895;BMP280;65855;42.030;13.078;2022-12-19T14:43:26;94998.16;;;8.06
76895;BMP280;65855;42.030;13.078;2022-12-19T14:48:52;94999.47;;;7.97
76895;BMP280;65855;42.030;13.078;2022-12-19T15:04:47;94996.47;;;7.67
76895;BMP280;65855;42.030;13.078;2022-12-19T15:07:26;94994.03;;;7.45
76895;BMP280;65855;42.030;13.078;2022-12-19T15:09:57;95001.81;;;7.43
76895;BMP280;65855;42.030;13.078;2022-12-19T15:12:32;95003.88;;;7.46
76895;BMP280;65855;42.030;13.078;2022-12-19T15:15:35;95010.44;;;7.36
76895;BMP280;65855;42.030;13.078;2022-12-19T15:18:02;95021.63;;;7.18
76895;BMP280;65855;42.030;13.078;2022-12-19T15:20:28;95011.28;;;7.03
76895;BMP280;65855;42.030;13.078;2022-12-19T15:22:53;95017.47;;;7.12
76895;BMP280;65855;42.030;13.078;2022-12-19T15:25:19;95016.50;;;7.13
76895;BMP280;65855;42.030;13.078;2022-12-19T15:27:45;95013.63;;;6.82
76895;BMP280;65855;42.030;13.078;2022-12-19T15:30:19;95024.41;;;6.60
76895;BMP280;65855;42.030;13.078;2022-12-19T15:32:46;95020.91;;;6.27
76895;BMP280;65855;42.030;13.078;2022-12-19T15:35:14;95019.91;;;6.17
76895;BMP280;65855;42.030;13.078;2022-12-19T15:37:39;95018.03;;;6.01
76895;BMP280;65855;42.030;13.078;2022-12-19T15:40:05;95018.66;;;5.97
76895;BMP280;65855;42.030;13.078;2022-12-19T15:42:31;95016.34;;;5.84
76895;BMP280;65855;42.030;13.078;2022-12-19T15:44:56;95015.19;;;5.86
76895;BMP280;65855;42.030;13.078;2022-12-19T15:47:35;95018.66;;;5.85
76895;BMP280;65855;42.030;13.078;2022-12-19T15:52:38;95009.91;;;5.76
76895;BMP280;65855;42.030;13.078;2022-12-19T15:55:04;95009.03;;;5.71
76895;BMP280;65855;42.030;13.078;2022-12-19T15:57:32;95008.41;;;5.58
76895;BMP280;65855;42.030;13.078;2022-12-19T16:00:01;95011.81;;;5.34
76895;BMP280;65855;42.030;13.078;2022-12-19T16:02:27;95011.53;;;5.25
76895;BMP280;65855;42.030;13.078;2022-12-19T16:04:55;95013.28;;;5.24
76895;BMP280;65855;42.030;13.078;2022-12-19T16:07:22;95011.88;;;5.28
76895;BMP280;65855;42.030;13.078;2022-12-19T16:09:48;95013.88;;;5.20
76895;BMP280;65855;42.030;13.078;2022-12-19T16:12:20;95016.47;;;5.13
76895;BMP280;65855;42.030;13.078;2022-12-19T16:14:54;95022.13;;;5.09
76895;BMP280;65855;42.030;13.078;2022-12-19T16:17:21;95018.22;;;4.95
76895;BMP280;65855;42.030;13.078;2022-12-19T16:19:48;95017.81;;;4.98
76895;BMP280;65855;42.030;13.078;2022-12-19T16:22:20;95016.19;;;5.21
76895;BMP280;65855;42.030;13.078;2022-12-19T16:24:46;95004.78;;;5.43
76895;BMP280;65855;42.030;13.078;2022-12-19T16:27:27;95001.91;;;5.39
76895;BMP280;65855;42.030;13.078;2022-12-19T16:29:53;95010.41;;;5.21
76895;BMP280;65855;42.030;13.078;2022-12-19T16:32:20;94999.63;;;4.91
76895;BMP280;65855;42.030;13.078;2022-12-19T16:34:48;95001.97;;;4.69
76895;BMP280;65855;42.030;13.078;2022-12-19T16:37:13;95002.09;;;4.56
76895;BMP280;65855;42.030;13.078;2022-12-19T16:39:39;95004.31;;;4.46
76895;BMP280;65855;42.030;13.078;2022-12-19T16:42:14;95013.97;;;4.19
76895;BMP280;65855;42.030;13.078;2022-12-19T16:44:40;95007.00;;;4.45
76895;BMP280;65855;42.030;13.078;2022-12-19T16:47:13;94996.84;;;4.64
76895;BMP280;65855;42.030;13.078;2022-12-19T16:49:39;94996.06;;;4.81
76895;BMP280;65855;42.030;13.078;2022-12-19T16:52:05;94988.84;;;4.73
76895;BMP280;65855;42.030;13.078;2022-12-19T16:54:30;94991.41;;;4.67
76895;BMP280;65855;42.030;13.078;2022-12-19T16:56:55;94994.75;;;4.61
76895;BMP280;65855;42.030;13.078;2022-12-19T16:59:25;94991.13;;;4.39